Pecs/Pogany, Hungary
Current Conditions -  °F | °C
As of 6:15 PM on Thursday 23 Oct 2014 (Local Time) from LHPP Reporting Station
Light Rain Light Rain  
Wind Chill: 44°   Ceiling: 1100
Heat Index: 46°   Visibility: 6mi
Dew Point: 45°   Wind: 6mph
Humidity: 93%   Direction: 360°N
Pressure: 29.74"   Gusts: NA
Location:  46.1°N, 18.23°E
Report Text: LHPP 231615Z 36005KT 9999 -RA FEW006 BKN011 OVC083 08/07 Q1007
Loading
Personal Weather Stations






























Interactive Weather Map
Tropical Storm Tracking
New forecast layout! Learn more

10-Day Weather Forecast

Advertisements
Track Severe Weather on mobile